sensor_id;sensor_type;location;lat;lon;timestamp;pressure;altitude;pressure_sealevel;temperature;humidity
13027;BME280;6580;42.680;23.324;2022-07-31T00:02:10;95028.91;;;22.79;100.00
13027;BME280;6580;42.680;23.324;2022-07-31T00:04:37;95049.56;;;22.80;100.00
13027;BME280;6580;42.680;23.324;2022-07-31T00:07:03;95043.22;;;23.09;100.00
13027;BME280;6580;42.680;23.324;2022-07-31T00:09:30;95031.94;;;22.94;100.00
13027;BME280;6580;42.680;23.324;2022-07-31T00:11:57;95035.63;;;22.88;100.00
13027;BME280;6580;42.680;23.324;2022-07-31T00:14:24;95032.91;;;22.76;100.00
13027;BME280;6580;42.680;23.324;2022-07-31T00:16:50;95037.75;;;22.74;100.00
13027;BME280;6580;42.680;23.324;2022-07-31T00:19:19;95043.22;;;23.09;100.00
13027;BME280;6580;42.680;23.324;2022-07-31T00:21:45;95042.00;;;23.05;100.00
13027;BME280;6580;42.680;23.324;2022-07-31T00:24:12;95050.03;;;22.88;100.00
13027;BME280;6580;42.680;23.324;2022-07-31T00:26:39;95061.94;;;22.87;100.00
13027;BME280;6580;42.680;23.324;2022-07-31T00:29:06;95046.16;;;23.07;100.00
13027;BME280;6580;42.680;23.324;2022-07-31T00:31:33;95058.06;;;23.18;100.00
13027;BME280;6580;42.680;23.324;2022-07-31T00:33:59;95050.63;;;23.25;100.00
13027;BME280;6580;42.680;23.324;2022-07-31T00:36:28;95047.00;;;23.08;100.00
13027;BME280;6580;42.680;23.324;2022-07-31T00:38:54;95062.81;;;23.11;100.00
13027;BME280;6580;42.680;23.324;2022-07-31T00:41:21;95073.16;;;23.02;100.00
13027;BME280;6580;42.680;23.324;2022-07-31T00:43:48;95064.06;;;22.85;100.00
13027;BME280;6580;42.680;23.324;2022-07-31T00:46:14;95057.50;;;22.81;100.00
13027;BME280;6580;42.680;23.324;2022-07-31T00:48:41;95061.13;;;22.75;100.00
13027;BME280;6580;42.680;23.324;2022-07-31T00:51:08;95062.06;;;22.58;100.00
13027;BME280;6580;42.680;23.324;2022-07-31T00:53:36;95051.47;;;22.68;100.00
13027;BME280;6580;42.680;23.324;2022-07-31T00:56:03;95060.88;;;22.88;100.00
13027;BME280;6580;42.680;23.324;2022-07-31T00:58:32;95063.84;;;22.75;100.00
13027;BME280;6580;42.680;23.324;2022-07-31T01:00:59;95071.97;;;22.41;100.00
13027;BME280;6580;42.680;23.324;2022-07-31T01:03:26;95065.28;;;22.55;100.00
13027;BME280;6580;42.680;23.324;2022-07-31T01:05:52;95064.78;;;22.58;100.00
13027;BME280;6580;42.680;23.324;2022-07-31T01:08:19;95064.31;;;22.72;100.00
13027;BME280;6580;42.680;23.324;2022-07-31T01:10:57;95081.44;;;22.84;100.00
13027;BME280;6580;42.680;23.324;2022-07-31T01:13:30;95084.63;;;22.70;100.00
13027;BME280;6580;42.680;23.324;2022-07-31T01:16:00;95082.72;;;22.59;100.00
13027;BME280;6580;42.680;23.324;2022-07-31T01:18:32;95076.50;;;22.29;100.00
13027;BME280;6580;42.680;23.324;2022-07-31T01:21:04;95062.94;;;22.29;100.00
13027;BME280;6580;42.680;23.324;2022-07-31T01:26:35;95072.44;;;22.38;100.00
13027;BME280;6580;42.680;23.324;2022-07-31T01:29:13;95073.97;;;22.05;100.00
13027;BME280;6580;42.680;23.324;2022-07-31T01:31:44;95080.28;;;22.28;100.00
13027;BME280;6580;42.680;23.324;2022-07-31T01:34:18;95075.97;;;22.39;100.00
13027;BME280;6580;42.680;23.324;2022-07-31T01:36:56;95069.03;;;22.13;100.00
13027;BME280;6580;42.680;23.324;2022-07-31T01:39:25;95083.47;;;22.25;100.00
13027;BME280;6580;42.680;23.324;2022-07-31T01:41:53;95040.72;;;22.09;100.00
13027;BME280;6580;42.680;23.324;2022-07-31T01:44:24;95080.16;;;22.23;100.00
13027;BME280;6580;42.680;23.324;2022-07-31T01:46:52;95078.69;;;22.39;100.00
13027;BME280;6580;42.680;23.324;2022-07-31T01:49:24;95060.63;;;22.44;100.00
13027;BME280;6580;42.680;23.324;2022-07-31T01:51:52;95064.31;;;22.20;100.00
13027;BME280;6580;42.680;23.324;2022-07-31T01:54:20;95069.84;;;22.43;100.00
13027;BME280;6580;42.680;23.324;2022-07-31T01:56:48;95066.81;;;22.22;100.00
13027;BME280;6580;42.680;23.324;2022-07-31T01:59:16;95062.63;;;22.49;100.00
13027;BME280;6580;42.680;23.324;2022-07-31T02:01:47;95064.88;;;22.40;100.00
13027;BME280;6580;42.680;23.324;2022-07-31T02:04:15;95079.16;;;22.36;100.00
13027;BME280;6580;42.680;23.324;2022-07-31T02:06:46;95070.84;;;22.31;100.00
13027;BME280;6580;42.680;23.324;2022-07-31T02:09:17;95078.03;;;22.25;100.00
13027;BME280;6580;42.680;23.324;2022-07-31T02:11:44;95075.53;;;22.12;100.00
13027;BME280;6580;42.680;23.324;2022-07-31T02:14:13;95067.44;;;21.94;100.00
13027;BME280;6580;42.680;23.324;2022-07-31T02:16:42;95073.78;;;21.88;100.00
13027;BME280;6580;42.680;23.324;2022-07-31T02:19:12;95081.31;;;22.16;100.00
13027;BME280;6580;42.680;23.324;2022-07-31T02:21:39;95076.97;;;22.26;100.00
13027;BME280;6580;42.680;23.324;2022-07-31T02:24:07;95078.03;;;22.25;100.00
13027;BME280;6580;42.680;23.324;2022-07-31T02:26:35;95069.75;;;22.20;100.00
13027;BME280;6580;42.680;23.324;2022-07-31T02:29:03;95077.50;;;22.05;100.00
13027;BME280;6580;42.680;23.324;2022-07-31T02:31:33;95063.88;;;21.82;100.00
13027;BME280;6580;42.680;23.324;2022-07-31T02:34:01;95078.94;;;22.08;100.00
13027;BME280;6580;42.680;23.324;2022-07-31T02:36:32;95080.53;;;22.27;100.00
13027;BME280;6580;42.680;23.324;2022-07-31T02:39:01;95089.94;;;21.83;100.00
13027;BME280;6580;42.680;23.324;2022-07-31T02:41:29;95081.69;;;21.60;100.00
13027;BME280;6580;42.680;23.324;2022-07-31T02:43:56;95087.78;;;21.56;100.00
13027;BME280;6580;42.680;23.324;2022-07-31T02:46:24;95083.81;;;21.58;100.00
13027;BME280;6580;42.680;23.324;2022-07-31T02:48:52;95081.75;;;21.54;100.00
13027;BME280;6580;42.680;23.324;2022-07-31T02:51:20;95094.81;;;21.63;100.00
13027;BME280;6580;42.680;23.324;2022-07-31T02:53:49;95091.94;;;21.58;100.00
13027;BME280;6580;42.680;23.324;2022-07-31T02:56:17;95095.53;;;21.70;100.00
13027;BME280;6580;42.680;23.324;2022-07-31T02:58:43;95093.59;;;21.59;100.00
13027;BME280;6580;42.680;23.324;2022-07-31T03:01:10;95089.47;;;21.86;100.00
13027;BME280;6580;42.680;23.324;2022-07-31T03:03:38;95088.31;;;21.64;100.00
13027;BME280;6580;42.680;23.324;2022-07-31T03:06:05;95079.50;;;21.69;100.00
13027;BME280;6580;42.680;23.324;2022-07-31T03:08:32;95096.53;;;21.87;100.00
13027;BME280;6580;42.680;23.324;2022-07-31T03:11:00;95097.38;;;21.88;100.00
13027;BME280;6580;42.680;23.324;2022-07-31T03:13:29;95089.47;;;21.86;100.00
13027;BME280;6580;42.680;23.324;2022-07-31T03:15:57;95097.47;;;21.81;100.00
13027;BME280;6580;42.680;23.324;2022-07-31T03:18:25;95101.69;;;21.77;100.00
13027;BME280;6580;42.680;23.324;2022-07-31T03:20:53;95099.81;;;21.60;100.00
13027;BME280;6580;42.680;23.324;2022-07-31T03:23:22;95061.75;;;21.37;100.00
13027;BME280;6580;42.680;23.324;2022-07-31T03:25:50;95105.47;;;21.76;100.00
13027;BME280;6580;42.680;23.324;2022-07-31T03:28:20;95093.41;;;21.54;100.00
13027;BME280;6580;42.680;23.324;2022-07-31T03:30:50;95102.94;;;21.63;100.00
13027;BME280;6580;42.680;23.324;2022-07-31T03:33:17;95117.66;;;21.14;100.00
13027;BME280;6580;42.680;23.324;2022-07-31T03:35:43;95119.41;;;20.84;100.00
13027;BME280;6580;42.680;23.324;2022-07-31T03:38:10;95118.13;;;20.86;100.00
13027;BME280;6580;42.680;23.324;2022-07-31T03:40:37;95111.72;;;20.56;100.00
13027;BME280;6580;42.680;23.324;2022-07-31T03:43:04;95119.84;;;20.56;100.00
13027;BME280;6580;42.680;23.324;2022-07-31T03:45:33;95116.28;;;20.87;100.00
13027;BME280;6580;42.680;23.324;2022-07-31T03:48:01;95127.13;;;21.05;100.00
13027;BME280;6580;42.680;23.324;2022-07-31T03:50:28;95130.75;;;21.17;100.00
13027;BME280;6580;42.680;23.324;2022-07-31T03:52:55;95129.25;;;21.03;100.00
13027;BME280;6580;42.680;23.324;2022-07-31T03:55:23;95128.38;;;21.02;100.00
13027;BME280;6580;42.680;23.324;2022-07-31T03:57:51;95129.19;;;21.27;100.00
13027;BME280;6580;42.680;23.324;2022-07-31T04:00:18;95129.00;;;21.22;100.00
13027;BME280;6580;42.680;23.324;2022-07-31T04:02:53;95134.00;;;21.25;100.00
13027;BME280;6580;42.680;23.324;2022-07-31T04:05:20;95136.50;;;21.27;100.00
13027;BME280;6580;42.680;23.324;2022-07-31T04:07:47;95132.13;;;21.44;100.00
13027;BME280;6580;42.680;23.324;2022-07-31T04:10:14;95128.22;;;21.57;100.00
13027;BME280;6580;42.680;23.324;2022-07-31T04:12:40;95137.91;;;21.47;100.00
13027;BME280;6580;42.680;23.324;2022-07-31T04:15:08;95134.38;;;21.47;100.00
13027;BME280;6580;42.680;23.324;2022-07-31T04:17:34;95132.97;;;21.62;100.00
13027;BME280;6580;42.680;23.324;2022-07-31T04:20:03;95130.06;;;21.39;100.00
13027;BME280;6580;42.680;23.324;2022-07-31T04:22:30;95133.19;;;21.60;100.00
13027;BME280;6580;42.680;23.324;2022-07-31T04:24:57;95131.38;;;21.37;100.00
13027;BME280;6580;42.680;23.324;2022-07-31T04:27:24;95124.22;;;21.42;100.00
13027;BME280;6580;42.680;23.324;2022-07-31T04:29:51;95118.69;;;21.48;100.00
13027;BME280;6580;42.680;23.324;2022-07-31T04:32:17;95121.50;;;21.60;100.00
13027;BME280;6580;42.680;23.324;2022-07-31T04:34:44;95117.63;;;21.85;100.00
13027;BME280;6580;42.680;23.324;2022-07-31T04:37:12;95121.28;;;21.79;100.00
13027;BME280;6580;42.680;23.324;2022-07-31T04:39:39;95118.56;;;21.79;100.00
13027;BME280;6580;42.680;23.324;2022-07-31T04:42:06;95113.16;;;22.20;100.00
13027;BME280;6580;42.680;23.324;2022-07-31T04:44:32;95117.44;;;22.46;100.00
13027;BME280;6580;42.680;23.324;2022-07-31T04:46:59;95118.69;;;22.43;100.00
13027;BME280;6580;42.680;23.324;2022-07-31T04:49:26;95114.59;;;22.52;100.00
13027;BME280;6580;42.680;23.324;2022-07-31T04:51:53;95116.72;;;22.50;100.00
13027;BME280;6580;42.680;23.324;2022-07-31T04:54:21;95114.59;;;22.52;100.00
13027;BME280;6580;42.680;23.324;2022-07-31T04:56:48;95111.88;;;22.52;100.00
13027;BME280;6580;42.680;23.324;2022-07-31T04:59:17;95119.75;;;22.13;100.00
13027;BME280;6580;42.680;23.324;2022-07-31T05:01:45;95108.22;;;22.17;100.00
13027;BME280;6580;42.680;23.324;2022-07-31T05:04:12;95128.28;;;22.46;100.00
13027;BME280;6580;42.680;23.324;2022-07-31T05:06:40;95129.44;;;22.50;100.00
13027;BME280;6580;42.680;23.324;2022-07-31T05:09:09;95125.78;;;22.44;100.00
13027;BME280;6580;42.680;23.324;2022-07-31T05:11:39;95123.59;;;22.64;100.00
13027;BME280;6580;42.680;23.324;2022-07-31T05:14:08;95126.06;;;22.77;100.00
13027;BME280;6580;42.680;23.324;2022-07-31T05:16:36;95118.88;;;23.05;100.00
13027;BME280;6580;42.680;23.324;2022-07-31T05:19:04;95120.63;;;22.77;99.74
13027;BME280;6580;42.680;23.324;2022-07-31T05:21:30;95121.59;;;22.71;100.00
13027;BME280;6580;42.680;23.324;2022-07-31T05:23:58;95127.22;;;22.47;100.00
13027;BME280;6580;42.680;23.324;2022-07-31T05:26:27;95120.22;;;22.39;100.00
13027;BME280;6580;42.680;23.324;2022-07-31T05:28:57;95129.72;;;22.30;100.00
13027;BME280;6580;42.680;23.324;2022-07-31T05:31:25;95122.28;;;22.26;100.00
13027;BME280;6580;42.680;23.324;2022-07-31T05:33:53;95127.13;;;22.53;100.00
13027;BME280;6580;42.680;23.324;2022-07-31T05:36:20;95121.53;;;22.48;100.00
13027;BME280;6580;42.680;23.324;2022-07-31T05:38:47;95122.66;;;22.70;100.00
13027;BME280;6580;42.680;23.324;2022-07-31T05:41:15;95124.41;;;22.53;100.00
13027;BME280;6580;42.680;23.324;2022-07-31T05:43:42;95116.56;;;22.45;100.00
13027;BME280;6580;42.680;23.324;2022-07-31T05:46:10;95126.91;;;22.66;100.00
13027;BME280;6580;42.680;23.324;2022-07-31T05:48:39;95125.75;;;22.96;97.92
13027;BME280;6580;42.680;23.324;2022-07-31T05:51:07;95103.84;;;22.57;97.59
13027;BME280;6580;42.680;23.324;2022-07-31T05:53:34;95127.25;;;22.81;96.20
13027;BME280;6580;42.680;23.324;2022-07-31T05:56:02;95119.59;;;23.47;91.81
13027;BME280;6580;42.680;23.324;2022-07-31T05:58:29;95126.41;;;24.11;86.03
13027;BME280;6580;42.680;23.324;2022-07-31T06:00:55;95118.63;;;24.31;82.57
13027;BME280;6580;42.680;23.324;2022-07-31T06:03:25;95124.06;;;24.03;84.07
13027;BME280;6580;42.680;23.324;2022-07-31T06:05:53;95125.66;;;23.99;84.29
13027;BME280;6580;42.680;23.324;2022-07-31T06:08:20;95104.13;;;23.86;85.17
13027;BME280;6580;42.680;23.324;2022-07-31T06:10:47;95121.41;;;24.20;83.88
13027;BME280;6580;42.680;23.324;2022-07-31T06:13:13;95123.09;;;24.09;83.18
13027;BME280;6580;42.680;23.324;2022-07-31T06:15:41;95116.41;;;24.89;78.96
13027;BME280;6580;42.680;23.324;2022-07-31T06:18:08;95117.19;;;25.76;74.23
13027;BME280;6580;42.680;23.324;2022-07-31T06:20:36;95117.56;;;25.64;71.74
13027;BME280;6580;42.680;23.324;2022-07-31T06:23:04;95118.78;;;25.35;73.74
13027;BME280;6580;42.680;23.324;2022-07-31T06:25:30;95119.81;;;25.29;74.50
13027;BME280;6580;42.680;23.324;2022-07-31T06:27:57;95115.28;;;25.77;73.98
13027;BME280;6580;42.680;23.324;2022-07-31T06:30:24;95115.56;;;26.18;71.19
13027;BME280;6580;42.680;23.324;2022-07-31T06:32:51;95115.34;;;26.46;70.11
13027;BME280;6580;42.680;23.324;2022-07-31T06:35:17;95106.16;;;26.09;69.96
13027;BME280;6580;42.680;23.324;2022-07-31T06:37:46;95109.69;;;26.31;69.09
13027;BME280;6580;42.680;23.324;2022-07-31T06:40:12;95102.47;;;26.20;67.33
13027;BME280;6580;42.680;23.324;2022-07-31T06:42:39;95106.53;;;26.66;66.13
13027;BME280;6580;42.680;23.324;2022-07-31T06:45:07;95107.66;;;26.43;67.65
13027;BME280;6580;42.680;23.324;2022-07-31T06:47:34;95113.25;;;26.53;65.80
13027;BME280;6580;42.680;23.324;2022-07-31T06:50:02;95106.38;;;26.82;66.41
13027;BME280;6580;42.680;23.324;2022-07-31T06:52:28;95108.56;;;26.27;66.92
13027;BME280;6580;42.680;23.324;2022-07-31T06:54:56;95105.41;;;26.93;66.73
13027;BME280;6580;42.680;23.324;2022-07-31T06:57:23;95105.59;;;27.59;62.05
13027;BME280;6580;42.680;23.324;2022-07-31T06:59:50;95115.75;;;28.10;60.28
13027;BME280;6580;42.680;23.324;2022-07-31T07:02:17;95107.34;;;28.26;59.90
13027;BME280;6580;42.680;23.324;2022-07-31T07:04:43;95124.13;;;27.06;62.71
13027;BME280;6580;42.680;23.324;2022-07-31T07:07:10;95116.50;;;26.82;67.02
13027;BME280;6580;42.680;23.324;2022-07-31T07:09:37;95123.13;;;27.58;61.47
13027;BME280;6580;42.680;23.324;2022-07-31T07:12:06;95107.22;;;27.96;58.88
13027;BME280;6580;42.680;23.324;2022-07-31T07:14:33;95117.06;;;28.74;56.81
13027;BME280;6580;42.680;23.324;2022-07-31T07:17:02;95121.47;;;28.90;55.79
13027;BME280;6580;42.680;23.324;2022-07-31T07:19:29;95121.31;;;28.30;58.04
13027;BME280;6580;42.680;23.324;2022-07-31T07:21:56;95122.81;;;27.91;60.71
13027;BME280;6580;42.680;23.324;2022-07-31T07:24:22;95119.56;;;28.95;58.35
13027;BME280;6580;42.680;23.324;2022-07-31T07:26:49;95115.47;;;29.12;54.67
13027;BME280;6580;42.680;23.324;2022-07-31T07:29:17;95118.47;;;28.91;56.56
13027;BME280;6580;42.680;23.324;2022-07-31T07:31:44;95121.59;;;28.28;58.25
13027;BME280;6580;42.680;23.324;2022-07-31T07:34:11;95123.59;;;28.58;58.63
13027;BME280;6580;42.680;23.324;2022-07-31T07:36:37;95112.97;;;29.31;55.27
13027;BME280;6580;42.680;23.324;2022-07-31T07:39:04;95130.00;;;28.88;56.22
13027;BME280;6580;42.680;23.324;2022-07-31T07:41:31;95122.44;;;27.78;60.33
13027;BME280;6580;42.680;23.324;2022-07-31T07:43:58;95125.25;;;27.46;63.37
13027;BME280;6580;42.680;23.324;2022-07-31T07:46:26;95115.22;;;27.20;65.95
13027;BME280;6580;42.680;23.324;2022-07-31T07:48:52;95105.50;;;28.67;60.53
13027;BME280;6580;42.680;23.324;2022-07-31T07:51:19;95098.34;;;29.85;55.53
13027;BME280;6580;42.680;23.324;2022-07-31T07:53:49;95095.72;;;31.20;49.33
13027;BME280;6580;42.680;23.324;2022-07-31T07:56:25;95103.41;;;30.36;51.16
13027;BME280;6580;42.680;23.324;2022-07-31T07:58:52;95107.22;;;29.22;55.88
13027;BME280;6580;42.680;23.324;2022-07-31T08:01:20;95115.72;;;29.66;54.12
13027;BME280;6580;42.680;23.324;2022-07-31T08:03:48;95099.84;;;29.43;53.09
13027;BME280;6580;42.680;23.324;2022-07-31T08:06:14;95109.75;;;30.80;50.45
13027;BME280;6580;42.680;23.324;2022-07-31T08:08:41;95107.13;;;31.70;46.65
13027;BME280;6580;42.680;23.324;2022-07-31T08:11:08;95102.97;;;31.11;48.03
13027;BME280;6580;42.680;23.324;2022-07-31T08:13:35;95124.34;;;30.22;50.02
13027;BME280;6580;42.680;23.324;2022-07-31T08:16:01;95130.06;;;30.89;49.70
13027;BME280;6580;42.680;23.324;2022-07-31T08:18:28;95104.22;;;30.85;48.68
13027;BME280;6580;42.680;23.324;2022-07-31T08:20:57;95125.69;;;32.12;45.42
13027;BME280;6580;42.680;23.324;2022-07-31T08:23:24;95125.69;;;32.95;44.11
13027;BME280;6580;42.680;23.324;2022-07-31T08:25:50;95123.38;;;33.02;42.90
13027;BME280;6580;42.680;23.324;2022-07-31T08:28:17;95130.34;;;33.00;41.97
13027;BME280;6580;42.680;23.324;2022-07-31T08:30:44;95127.69;;;32.29;44.06
13027;BME280;6580;42.680;23.324;2022-07-31T08:33:11;95122.66;;;32.36;44.92
13027;BME280;6580;42.680;23.324;2022-07-31T08:35:38;95128.44;;;32.12;43.51
13027;BME280;6580;42.680;23.324;2022-07-31T08:38:06;95117.44;;;32.12;43.75
13027;BME280;6580;42.680;23.324;2022-07-31T08:40:32;95131.94;;;30.40;47.84
13027;BME280;6580;42.680;23.324;2022-07-31T08:42:59;95126.56;;;30.79;47.61
13027;BME280;6580;42.680;23.324;2022-07-31T08:45:27;95120.84;;;32.45;43.88
13027;BME280;6580;42.680;23.324;2022-07-31T08:47:55;95123.72;;;34.15;40.42
13027;BME280;6580;42.680;23.324;2022-07-31T08:50:22;95117.78;;;34.35;39.19
13027;BME280;6580;42.680;23.324;2022-07-31T08:52:52;95117.56;;;34.44;37.95
13027;BME280;6580;42.680;23.324;2022-07-31T08:55:21;95111.81;;;34.14;39.34
13027;BME280;6580;42.680;23.324;2022-07-31T08:57:48;95118.38;;;34.32;38.70
13027;BME280;6580;42.680;23.324;2022-07-31T09:00:16;95121.00;;;33.32;40.63
13027;BME280;6580;42.680;23.324;2022-07-31T09:02:44;95114.44;;;34.06;39.00
13027;BME280;6580;42.680;23.324;2022-07-31T09:05:10;95122.09;;;33.82;39.74
13027;BME280;6580;42.680;23.324;2022-07-31T09:07:38;95092.84;;;32.38;41.99
13027;BME280;6580;42.680;23.324;2022-07-31T09:10:07;95118.56;;;32.52;42.33
13027;BME280;6580;42.680;23.324;2022-07-31T09:12:35;95117.13;;;32.78;41.28
13027;BME280;6580;42.680;23.324;2022-07-31T09:15:02;95127.28;;;32.59;41.58
13027;BME280;6580;42.680;23.324;2022-07-31T09:17:31;95119.81;;;31.66;43.64
13027;BME280;6580;42.680;23.324;2022-07-31T09:19:59;95122.91;;;30.35;47.10
13027;BME280;6580;42.680;23.324;2022-07-31T09:22:29;95130.75;;;29.98;48.89
13027;BME280;6580;42.680;23.324;2022-07-31T09:25:07;95126.13;;;29.79;50.00
13027;BME280;6580;42.680;23.324;2022-07-31T09:27:37;95126.59;;;30.05;49.34
13027;BME280;6580;42.680;23.324;2022-07-31T09:30:06;95110.25;;;30.39;47.14
13027;BME280;6580;42.680;23.324;2022-07-31T09:32:33;95104.25;;;30.80;46.19
13027;BME280;6580;42.680;23.324;2022-07-31T09:35:07;95096.34;;;31.97;42.88
13027;BME280;6580;42.680;23.324;2022-07-31T09:37:36;95108.47;;;32.66;41.46
13027;BME280;6580;42.680;23.324;2022-07-31T09:40:05;95101.22;;;32.05;40.77
13027;BME280;6580;42.680;23.324;2022-07-31T09:42:40;95097.16;;;32.44;40.57
13027;BME280;6580;42.680;23.324;2022-07-31T09:45:20;95102.16;;;32.61;38.82
13027;BME280;6580;42.680;23.324;2022-07-31T09:48:01;95096.91;;;31.04;41.45
13027;BME280;6580;42.680;23.324;2022-07-31T09:50:28;95094.75;;;31.06;42.77
13027;BME280;6580;42.680;23.324;2022-07-31T09:52:57;95096.78;;;31.24;42.09
13027;BME280;6580;42.680;23.324;2022-07-31T09:55:24;95098.50;;;31.48;42.33
13027;BME280;6580;42.680;23.324;2022-07-31T09:57:54;95108.94;;;30.21;43.68
13027;BME280;6580;42.680;23.324;2022-07-31T10:00:21;95100.56;;;30.46;42.80
13027;BME280;6580;42.680;23.324;2022-07-31T10:02:50;95100.31;;;30.48;42.48
13027;BME280;6580;42.680;23.324;2022-07-31T10:05:19;95094.00;;;31.29;42.42
13027;BME280;6580;42.680;23.324;2022-07-31T10:07:47;95077.94;;;32.16;39.64
13027;BME280;6580;42.680;23.324;2022-07-31T10:10:14;95077.88;;;31.98;40.03
13027;BME280;6580;42.680;23.324;2022-07-31T10:12:49;95084.16;;;32.26;39.78
13027;BME280;6580;42.680;23.324;2022-07-31T10:15:19;95077.81;;;33.23;37.94
13027;BME280;6580;42.680;23.324;2022-07-31T10:17:48;95072.66;;;33.48;37.45
13027;BME280;6580;42.680;23.324;2022-07-31T10:20:18;95074.69;;;33.75;36.73
13027;BME280;6580;42.680;23.324;2022-07-31T10:22:47;95075.81;;;33.42;36.30
13027;BME280;6580;42.680;23.324;2022-07-31T10:25:21;95079.94;;;32.11;38.89
13027;BME280;6580;42.680;23.324;2022-07-31T10:27:50;95053.69;;;33.28;36.99
13027;BME280;6580;42.680;23.324;2022-07-31T10:30:20;95058.56;;;34.36;34.61
13027;BME280;6580;42.680;23.324;2022-07-31T10:32:46;95062.34;;;34.88;33.04
13027;BME280;6580;42.680;23.324;2022-07-31T10:35:15;95051.59;;;35.22;32.50
13027;BME280;6580;42.680;23.324;2022-07-31T10:37:47;95043.03;;;35.84;31.38
13027;BME280;6580;42.680;23.324;2022-07-31T10:40:24;95041.13;;;35.41;31.14
13027;BME280;6580;42.680;23.324;2022-07-31T10:43:00;95038.34;;;34.48;33.41
13027;BME280;6580;42.680;23.324;2022-07-31T10:45:29;95035.69;;;35.36;31.22
13027;BME280;6580;42.680;23.324;2022-07-31T10:47:57;95032.31;;;35.61;30.09
13027;BME280;6580;42.680;23.324;2022-07-31T10:50:26;95049.88;;;33.56;33.76
13027;BME280;6580;42.680;23.324;2022-07-31T10:53:05;95038.34;;;32.86;34.39
13027;BME280;6580;42.680;23.324;2022-07-31T10:55:32;95040.00;;;33.37;34.46
13027;BME280;6580;42.680;23.324;2022-07-31T10:58:06;95044.94;;;33.53;34.12
13027;BME280;6580;42.680;23.324;2022-07-31T11:00:35;95031.72;;;33.96;34.80
13027;BME280;6580;42.680;23.324;2022-07-31T11:03:14;95033.78;;;33.58;33.97
13027;BME280;6580;42.680;23.324;2022-07-31T11:05:59;95038.56;;;32.52;35.83
13027;BME280;6580;42.680;23.324;2022-07-31T11:08:26;95029.22;;;31.65;36.36
13027;BME280;6580;42.680;23.324;2022-07-31T11:10:54;95037.53;;;32.48;34.66
13027;BME280;6580;42.680;23.324;2022-07-31T11:13:22;95045.19;;;33.25;34.09
13027;BME280;6580;42.680;23.324;2022-07-31T11:16:01;95035.91;;;33.80;32.21
13027;BME280;6580;42.680;23.324;2022-07-31T11:18:28;95022.44;;;32.96;33.52
13027;BME280;6580;42.680;23.324;2022-07-31T11:20:58;95009.16;;;34.02;32.69
13027;BME280;6580;42.680;23.324;2022-07-31T11:23:28;95008.19;;;33.53;34.05
13027;BME280;6580;42.680;23.324;2022-07-31T11:25:58;95008.38;;;35.21;32.20
13027;BME280;6580;42.680;23.324;2022-07-31T11:28:25;95021.59;;;35.76;30.44
13027;BME280;6580;42.680;23.324;2022-07-31T11:30:54;95014.72;;;35.22;30.92
13027;BME280;6580;42.680;23.324;2022-07-31T11:33:29;95026.84;;;33.16;33.82
13027;BME280;6580;42.680;23.324;2022-07-31T11:36:00;95010.91;;;33.98;32.17
13027;BME280;6580;42.680;23.324;2022-07-31T11:38:30;95005.09;;;34.00;31.83
13027;BME280;6580;42.680;23.324;2022-07-31T11:40:57;95003.84;;;35.47;30.57
13027;BME280;6580;42.680;23.324;2022-07-31T11:43:23;95004.72;;;35.95;29.75
13027;BME280;6580;42.680;23.324;2022-07-31T11:45:53;94994.28;;;34.87;31.62
13027;BME280;6580;42.680;23.324;2022-07-31T11:48:21;94994.84;;;34.00;32.80
13027;BME280;6580;42.680;23.324;2022-07-31T11:50:49;94983.81;;;34.62;32.90
13027;BME280;6580;42.680;23.324;2022-07-31T11:53:17;94979.00;;;35.12;31.71
13027;BME280;6580;42.680;23.324;2022-07-31T11:55:47;94984.22;;;35.13;31.84
13027;BME280;6580;42.680;23.324;2022-07-31T11:58:14;94980.97;;;35.11;31.45
13027;BME280;6580;42.680;23.324;2022-07-31T12:00:46;94983.84;;;35.58;30.91
13027;BME280;6580;42.680;23.324;2022-07-31T12:03:14;94987.13;;;36.47;30.00
13027;BME280;6580;42.680;23.324;2022-07-31T12:05:46;94980.72;;;36.21;29.27
13027;BME280;6580;42.680;23.324;2022-07-31T12:08:13;94969.25;;;36.14;29.65
13027;BME280;6580;42.680;23.324;2022-07-31T12:10:41;94966.66;;;36.26;28.99
13027;BME280;6580;42.680;23.324;2022-07-31T12:13:12;94979.94;;;35.29;30.25
13027;BME280;6580;42.680;23.324;2022-07-31T12:15:39;94974.13;;;34.95;30.82
13027;BME280;6580;42.680;23.324;2022-07-31T12:18:06;94962.75;;;35.49;30.66
13027;BME280;6580;42.680;23.324;2022-07-31T12:20:35;94948.16;;;35.35;30.73
13027;BME280;6580;42.680;23.324;2022-07-31T12:23:02;94952.03;;;35.26;30.88
13027;BME280;6580;42.680;23.324;2022-07-31T12:25:40;94952.38;;;35.54;30.16
13027;BME280;6580;42.680;23.324;2022-07-31T12:28:07;94956.84;;;33.52;31.94
13027;BME280;6580;42.680;23.324;2022-07-31T12:30:34;94954.66;;;32.90;33.16
13027;BME280;6580;42.680;23.324;2022-07-31T12:33:06;94956.94;;;33.02;33.24
13027;BME280;6580;42.680;23.324;2022-07-31T12:35:36;94949.81;;;33.73;31.97
13027;BME280;6580;42.680;23.324;2022-07-31T12:38:03;94930.19;;;34.10;32.22
13027;BME280;6580;42.680;23.324;2022-07-31T12:40:31;94936.28;;;34.12;31.89
13027;BME280;6580;42.680;23.324;2022-07-31T12:42:58;94936.22;;;32.54;33.28
13027;BME280;6580;42.680;23.324;2022-07-31T12:45:33;94948.97;;;32.68;32.38
13027;BME280;6580;42.680;23.324;2022-07-31T12:48:00;94934.06;;;32.32;32.88
13027;BME280;6580;42.680;23.324;2022-07-31T12:50:28;94937.53;;;32.01;32.20
13027;BME280;6580;42.680;23.324;2022-07-31T12:52:59;94935.16;;;31.95;33.59
13027;BME280;6580;42.680;23.324;2022-07-31T12:55:27;94925.09;;;32.40;33.78
13027;BME280;6580;42.680;23.324;2022-07-31T12:57:54;94928.88;;;32.81;33.28
13027;BME280;6580;42.680;23.324;2022-07-31T13:00:23;94915.50;;;32.88;31.90
13027;BME280;6580;42.680;23.324;2022-07-31T13:02:50;94909.91;;;33.07;32.17
13027;BME280;6580;42.680;23.324;2022-07-31T13:05:17;94927.28;;;33.39;31.74